Flight Track Log - Related Links

Times and Time Zones

All times are in EDT time to prevent confusion due to time zone crossing. See the AWI3704 flight status page for this flight to view local times or setup timezone preferences in your user account.

Time Position Orientation Groundspeed Altitude Reporting Facility
EDT Latitude Longitude Course Direction KTS MPH feet Rate Location/Type
Sat 12:59:36 PM 42.7111 -73.8078 179° South 157 181 1,900  Level Boston Center
Sat 01:00:37 PM 42.6936 -73.8639 247° West 212 244 3,700 2,098 Climbing Boston Center
Sat 01:01:00 PM 42.7334 -74.2584 270° West  Level FlightAware Approximate
Sat 01:01:39 PM 42.7050 -73.9572 279° West 268 308 6,200  Level Boston Center
Sat 01:02:00 PM 42.6766 -74.3785 220° Southwest  Level FlightAware Approximate
Sat 01:02:51 PM 42.7161 -74.0564 279° West 268 308 9,100  Level Boston Center
Sat 01:03:00 PM 42.5901 -74.4758 220° Southwest  Level FlightAware Approximate
Sat 01:03:51 PM 42.7289 -74.1728 279° West 263 303 11,800  Level Boston Center
Sat 01:04:00 PM 42.5067 -74.5777 219° Southwest  Level FlightAware Approximate
Sat 01:04:51 PM 42.7397 -74.2833 278° West 290 334 13,700  Level Boston Center
Sat 01:05:51 PM 42.6903 -74.3722 233° Southwest 283 326 15,200 1,600 Climbing Boston Center
Sat 01:06:51 PM 42.6244 -74.4436 219° Southwest 299 344 16,900 1,700 Climbing Boston Center
Sat 01:07:51 PM 42.5606 -74.5203 221° Southwest 315 362 18,600 1,050 Climbing Boston Center
Sat 01:08:51 PM 42.4925 -74.5997 221° Southwest 315 362 19,000 200 Climbing Boston Center
Sat 01:09:51 PM 42.4200 -74.6817 220° Southwest 327 376 19,000  Level Boston Center
Sat 01:10:51 PM 42.3475 -74.7633 220° Southwest 334 384 19,000  Level Boston Center
Sat 01:12:42 PM 42.2175 -74.9150 221° Southwest 338 389 19,000  Level New York Center
Sat 01:13:40 PM 42.1483 -74.9861 217° Southwest 343 395 19,000  Level New York Center
Sat 01:14:41 PM 42.0606 -75.0558 211° Southwest 348 400 19,000  Level New York Center
Sat 01:15:41 PM 41.9789 -75.1231 211° Southwest 343 395 19,000  Level New York Center
Sat 01:16:42 PM 41.8994 -75.1875 211° Southwest 343 395 19,000  Level New York Center
Sat 01:17:42 PM 41.8244 -75.2494 212° Southwest 350 403 19,000 -645 Level New York Center
Sat 01:18:43 PM 41.7342 -75.3211 211° Southwest 355 409 17,700 -1,563 Descending New York Center
Sat 01:19:41 PM 41.6547 -75.3850 211° Southwest 349 402 15,900 -1,744 Descending New York Center
Sat 01:20:40 PM 41.5817 -75.4439 211° Southwest 338 389 14,300 -1,550 Descending New York Center
Sat 01:21:41 PM 41.5169 -75.4975 212° Southwest 313 360 12,800 -1,150 Descending New York Center
Sat 01:22:40 PM 41.4481 -75.5508 210° Southwest 301 346 12,000 -400 Descending New York Center
Sat 01:23:41 PM 41.3708 -75.6117 211° Southwest 301 346 12,000  Level New York Center
Sat 01:24:42 PM 41.3061 -75.6622 210° Southwest 301 346 12,000 -541 Level New York Center
Sat 01:25:43 PM 41.2244 -75.6756 187° South 287 330 10,900 -1,008 Descending New York Center
Sat 01:26:41 PM 41.1442 -75.6506 167° South 287 330 10,000 -508 Descending New York Center
Sat 01:27:41 PM 41.0764 -75.6292 167° South 292 336 9,900  Descending New York Center
Sat 01:28:42 PM 41.0022 -75.6044 166° South 292 336 10,000 49 Climbing New York Center
Sat 01:29:43 PM 40.9281 -75.5828 168° South 278 320 10,000 50 Level New York Center
Sat 01:30:43 PM 40.8500 -75.5581 167° South 278 320 10,100  Climbing New York Center
Sat 01:31:40 PM 40.7758 -75.5364 168° South 278 320 10,000 -51 Descending New York Center
Sat 01:32:41 PM 40.7019 -75.5122 166° South 278 320 10,000  Level New York Center
Sat 01:33:43 PM 40.6278 -75.4878 166° South 278 320 10,000 -500 Level New York Center
Sat 01:34:41 PM 40.5517 -75.4608 165° South 278 320 9,000 -508 Descending New York Center
Sat 01:35:41 PM 40.4975 -75.4108 145° Southeast 255 293 9,000  Level New York Center
Sat 01:36:42 PM 40.4533 -75.3642 141° Southeast 233 268 9,000 -393 Level New York Center
Sat 01:37:43 PM 40.3972 -75.3086 143° Southeast 240 276 8,200 -958 Descending New York Center
Sat 01:38:41 PM 40.3358 -75.2828 162° South 219 252 7,100 -655 Descending New York Center
Sat 01:39:42 PM 40.2850 -75.3011 195° South 188 216 6,900 -98 Descending New York Center
Sat 01:40:43 PM 40.2419 -75.3364 212° Southwest 188 216 6,900 101 Level New York Center
Sat 01:41:41 PM 40.1897 -75.3411 184° South 188 216 7,100 -151 Climbing New York Center
Sat 01:42:42 PM 40.1342 -75.3239 167° South 204 235 6,600 -500 Descending New York Center
Sat 01:43:41 PM 40.0850 -75.2964 157° South 204 235 6,100 -385 Descending New York Center
Sat 01:44:00 PM 40.0667 -75.2833 151° Southeast 206 237 6,100  Level Philadelphia TRACON
Sat 01:45:00 PM 40.0500 -75.2167 108° East 259 298 6,100 -50 Level Philadelphia TRACON
Sat 01:46:00 PM 40.0333 -75.1333 105° East 217 250 6,000 -50 Descending Philadelphia TRACON
Sat 01:47:01 PM 40.0000 -75.0833 131° Southeast 219 252 6,000 -250 Level Philadelphia TRACON
Sat 01:48:00 PM 40.0333 -75.0000 62° Northeast 238 274 5,500 -454 Descending Philadelphia TRACON
Sat 01:49:00 PM 40.0500 -74.9167 75° East 225 259 5,100 -248 Descending Philadelphia TRACON
Sat 01:50:01 PM 40.0333 -74.8500 108° East 204 235 5,000 -347 Descending Philadelphia TRACON
Sat 01:51:01 PM 39.9833 -74.8333 166° South 181 208 4,400 -550 Descending Philadelphia TRACON
Sat 01:52:01 PM 39.9500 -74.8667 217° Southwest 165 190 3,900 -200 Descending Philadelphia TRACON
Sat 01:53:01 PM 39.9333 -74.9333 252° West 173 199 4,000  Climbing Philadelphia TRACON
Sat 01:54:01 PM 39.9167 -74.9833 247° West 166 191 3,900 -600 Descending Philadelphia TRACON
Sat 01:55:01 PM 39.9167 -75.0333 270° West 162 186 2,800 -1,100 Descending Philadelphia TRACON

Login

Don't have an account? Register now (free) for customized features, flight alerts, and more!